sensor_id;sensor_type;location;lat;lon;timestamp;P1;durP1;ratioP1;P2;durP2;ratioP2
55368;SDS011;41247;49.736;8.752;2023-02-15T00:01:50;35.72;;;16.30;;
55368;SDS011;41247;49.736;8.752;2023-02-15T00:05:32;36.33;;;15.88;;
55368;SDS011;41247;49.736;8.752;2023-02-15T00:09:13;71.10;;;15.95;;
55368;SDS011;41247;49.736;8.752;2023-02-15T00:12:53;27.65;;;13.50;;
55368;SDS011;41247;49.736;8.752;2023-02-15T00:16:34;34.55;;;13.57;;
55368;SDS011;41247;49.736;8.752;2023-02-15T00:20:16;70.90;;;16.60;;
55368;SDS011;41247;49.736;8.752;2023-02-15T00:23:57;29.17;;;14.23;;
55368;SDS011;41247;49.736;8.752;2023-02-15T00:27:39;30.25;;;14.15;;
55368;SDS011;41247;49.736;8.752;2023-02-15T00:31:20;27.55;;;13.73;;
55368;SDS011;41247;49.736;8.752;2023-02-15T00:35:01;25.92;;;13.18;;
55368;SDS011;41247;49.736;8.752;2023-02-15T00:38:42;28.55;;;13.82;;
55368;SDS011;41247;49.736;8.752;2023-02-15T00:42:23;30.60;;;13.93;;
55368;SDS011;41247;49.736;8.752;2023-02-15T00:46:04;29.48;;;13.82;;
55368;SDS011;41247;49.736;8.752;2023-02-15T00:49:45;32.33;;;14.88;;
55368;SDS011;41247;49.736;8.752;2023-02-15T00:53:26;26.88;;;13.32;;
55368;SDS011;41247;49.736;8.752;2023-02-15T00:57:07;29.45;;;14.82;;
55368;SDS011;41247;49.736;8.752;2023-02-15T01:00:49;29.05;;;13.68;;
55368;SDS011;41247;49.736;8.752;2023-02-15T01:04:30;44.42;;;14.70;;
55368;SDS011;41247;49.736;8.752;2023-02-15T01:08:10;32.30;;;13.52;;
55368;SDS011;41247;49.736;8.752;2023-02-15T01:11:51;38.40;;;14.25;;
55368;SDS011;41247;49.736;8.752;2023-02-15T01:15:34;35.85;;;14.00;;
55368;SDS011;41247;49.736;8.752;2023-02-15T01:19:15;31.40;;;14.48;;
55368;SDS011;41247;49.736;8.752;2023-02-15T01:22:57;24.67;;;12.48;;
55368;SDS011;41247;49.736;8.752;2023-02-15T01:26:38;22.88;;;11.45;;
55368;SDS011;41247;49.736;8.752;2023-02-15T01:30:18;23.00;;;10.85;;
55368;SDS011;41247;49.736;8.752;2023-02-15T01:33:59;21.67;;;11.55;;
55368;SDS011;41247;49.736;8.752;2023-02-15T01:37:40;22.05;;;11.35;;
55368;SDS011;41247;49.736;8.752;2023-02-15T01:41:20;27.05;;;13.35;;
55368;SDS011;41247;49.736;8.752;2023-02-15T01:45:05;30.95;;;14.48;;
55368;SDS011;41247;49.736;8.752;2023-02-15T01:49:16;108.45;;;18.50;;
55368;SDS011;41247;49.736;8.752;2023-02-15T01:53:09;31.63;;;14.20;;
55368;SDS011;41247;49.736;8.752;2023-02-15T01:57:30;33.35;;;14.50;;
55368;SDS011;41247;49.736;8.752;2023-02-15T02:01:11;34.63;;;15.65;;
55368;SDS011;41247;49.736;8.752;2023-02-15T02:04:52;42.38;;;18.20;;
55368;SDS011;41247;49.736;8.752;2023-02-15T02:08:38;37.97;;;17.38;;
55368;SDS011;41247;49.736;8.752;2023-02-15T02:12:19;43.15;;;17.33;;
55368;SDS011;41247;49.736;8.752;2023-02-15T02:16:16;37.47;;;16.38;;
55368;SDS011;41247;49.736;8.752;2023-02-15T02:20:35;32.28;;;16.02;;
55368;SDS011;41247;49.736;8.752;2023-02-15T02:33:19;29.80;;;14.65;;
55368;SDS011;41247;49.736;8.752;2023-02-15T02:37:11;32.83;;;14.98;;
55368;SDS011;41247;49.736;8.752;2023-02-15T02:41:12;28.15;;;14.48;;
55368;SDS011;41247;49.736;8.752;2023-02-15T02:45:25;70.85;;;15.68;;
55368;SDS011;41247;49.736;8.752;2023-02-15T02:49:13;107.05;;;15.20;;
55368;SDS011;41247;49.736;8.752;2023-02-15T02:52:54;56.60;;;15.10;;
55368;SDS011;41247;49.736;8.752;2023-02-15T02:56:41;344.30;;;22.98;;
55368;SDS011;41247;49.736;8.752;2023-02-15T03:00:26;41.83;;;15.40;;
55368;SDS011;41247;49.736;8.752;2023-02-15T03:04:14;33.65;;;16.45;;
55368;SDS011;41247;49.736;8.752;2023-02-15T03:07:57;40.53;;;15.98;;
55368;SDS011;41247;49.736;8.752;2023-02-15T03:11:41;33.80;;;15.60;;
55368;SDS011;41247;49.736;8.752;2023-02-15T03:19:27;81.40;;;17.48;;
55368;SDS011;41247;49.736;8.752;2023-02-15T03:23:12;32.92;;;15.15;;
55368;SDS011;41247;49.736;8.752;2023-02-15T03:27:02;36.22;;;16.10;;
55368;SDS011;41247;49.736;8.752;2023-02-15T03:30:51;44.60;;;16.60;;
55368;SDS011;41247;49.736;8.752;2023-02-15T03:34:35;50.08;;;15.27;;
55368;SDS011;41247;49.736;8.752;2023-02-15T03:38:17;166.82;;;17.15;;
55368;SDS011;41247;49.736;8.752;2023-02-15T03:42:19;136.23;;;16.15;;
55368;SDS011;41247;49.736;8.752;2023-02-15T03:46:54;80.72;;;16.35;;
55368;SDS011;41247;49.736;8.752;2023-02-15T03:50:24;90.40;;;17.15;;
55368;SDS011;41247;49.736;8.752;2023-02-15T03:54:24;51.88;;;15.93;;
55368;SDS011;41247;49.736;8.752;2023-02-15T03:58:10;102.20;;;19.30;;
55368;SDS011;41247;49.736;8.752;2023-02-15T04:01:57;154.63;;;20.02;;
55368;SDS011;41247;49.736;8.752;2023-02-15T04:05:58;254.40;;;22.75;;
55368;SDS011;41247;49.736;8.752;2023-02-15T04:09:41;122.43;;;19.77;;
55368;SDS011;41247;49.736;8.752;2023-02-15T04:13:22;63.83;;;18.67;;
55368;SDS011;41247;49.736;8.752;2023-02-15T04:17:10;193.00;;;22.15;;
55368;SDS011;41247;49.736;8.752;2023-02-15T04:20:50;117.43;;;20.50;;
55368;SDS011;41247;49.736;8.752;2023-02-15T04:24:31;352.48;;;28.60;;
55368;SDS011;41247;49.736;8.752;2023-02-15T04:28:11;46.70;;;19.40;;
55368;SDS011;41247;49.736;8.752;2023-02-15T04:31:52;166.30;;;23.58;;
55368;SDS011;41247;49.736;8.752;2023-02-15T04:35:35;183.48;;;21.85;;
55368;SDS011;41247;49.736;8.752;2023-02-15T04:39:16;95.07;;;20.75;;
55368;SDS011;41247;49.736;8.752;2023-02-15T04:42:58;99.38;;;20.73;;
55368;SDS011;41247;49.736;8.752;2023-02-15T04:46:39;92.00;;;19.42;;
55368;SDS011;41247;49.736;8.752;2023-02-15T04:50:20;197.48;;;22.73;;
55368;SDS011;41247;49.736;8.752;2023-02-15T04:54:01;106.90;;;20.27;;
55368;SDS011;41247;49.736;8.752;2023-02-15T04:57:41;99.72;;;22.30;;
55368;SDS011;41247;49.736;8.752;2023-02-15T05:01:22;47.13;;;19.75;;
55368;SDS011;41247;49.736;8.752;2023-02-15T05:05:03;47.97;;;20.15;;
55368;SDS011;41247;49.736;8.752;2023-02-15T05:08:44;51.75;;;22.00;;
55368;SDS011;41247;49.736;8.752;2023-02-15T05:12:24;49.47;;;20.58;;
55368;SDS011;41247;49.736;8.752;2023-02-15T05:16:05;53.17;;;22.33;;
55368;SDS011;41247;49.736;8.752;2023-02-15T05:19:45;50.90;;;21.50;;
55368;SDS011;41247;49.736;8.752;2023-02-15T05:23:26;47.95;;;19.55;;
55368;SDS011;41247;49.736;8.752;2023-02-15T05:27:07;49.40;;;20.42;;
55368;SDS011;41247;49.736;8.752;2023-02-15T05:34:54;55.50;;;18.77;;
55368;SDS011;41247;49.736;8.752;2023-02-15T05:38:34;53.08;;;21.58;;
55368;SDS011;41247;49.736;8.752;2023-02-15T05:42:18;52.92;;;20.38;;
55368;SDS011;41247;49.736;8.752;2023-02-15T05:45:59;50.58;;;20.38;;
55368;SDS011;41247;49.736;8.752;2023-02-15T05:49:40;45.05;;;18.27;;
55368;SDS011;41247;49.736;8.752;2023-02-15T05:53:20;46.88;;;20.00;;
55368;SDS011;41247;49.736;8.752;2023-02-15T05:57:01;47.92;;;19.17;;
55368;SDS011;41247;49.736;8.752;2023-02-15T06:00:41;45.47;;;18.48;;
55368;SDS011;41247;49.736;8.752;2023-02-15T06:04:22;193.50;;;27.77;;
55368;SDS011;41247;49.736;8.752;2023-02-15T06:08:03;173.15;;;23.50;;
55368;SDS011;41247;49.736;8.752;2023-02-15T06:11:44;155.77;;;23.52;;
55368;SDS011;41247;49.736;8.752;2023-02-15T06:15:25;176.70;;;23.17;;
55368;SDS011;41247;49.736;8.752;2023-02-15T06:19:05;123.85;;;24.40;;
55368;SDS011;41247;49.736;8.752;2023-02-15T06:22:46;243.68;;;26.73;;
55368;SDS011;41247;49.736;8.752;2023-02-15T06:26:27;256.17;;;24.95;;
55368;SDS011;41247;49.736;8.752;2023-02-15T06:30:07;169.52;;;24.80;;
55368;SDS011;41247;49.736;8.752;2023-02-15T06:33:51;209.65;;;24.67;;
55368;SDS011;41247;49.736;8.752;2023-02-15T06:37:31;162.25;;;24.98;;
55368;SDS011;41247;49.736;8.752;2023-02-15T06:41:12;186.98;;;24.40;;
55368;SDS011;41247;49.736;8.752;2023-02-15T06:44:52;195.35;;;25.40;;
55368;SDS011;41247;49.736;8.752;2023-02-15T06:48:33;151.93;;;22.90;;
55368;SDS011;41247;49.736;8.752;2023-02-15T06:52:14;149.02;;;23.13;;
55368;SDS011;41247;49.736;8.752;2023-02-15T06:56:04;79.45;;;21.65;;
55368;SDS011;41247;49.736;8.752;2023-02-15T06:59:47;57.90;;;19.95;;
55368;SDS011;41247;49.736;8.752;2023-02-15T07:03:27;51.47;;;18.65;;
55368;SDS011;41247;49.736;8.752;2023-02-15T07:07:09;73.70;;;20.20;;
55368;SDS011;41247;49.736;8.752;2023-02-15T07:10:51;83.35;;;18.40;;
55368;SDS011;41247;49.736;8.752;2023-02-15T07:14:33;186.93;;;22.63;;
55368;SDS011;41247;49.736;8.752;2023-02-15T07:18:14;168.63;;;21.73;;
55368;SDS011;41247;49.736;8.752;2023-02-15T07:21:54;188.95;;;23.25;;
55368;SDS011;41247;49.736;8.752;2023-02-15T07:25:35;126.22;;;22.05;;
55368;SDS011;41247;49.736;8.752;2023-02-15T07:29:16;78.30;;;20.55;;
55368;SDS011;41247;49.736;8.752;2023-02-15T07:32:57;156.90;;;22.75;;
55368;SDS011;41247;49.736;8.752;2023-02-15T07:36:38;358.77;;;27.45;;
55368;SDS011;41247;49.736;8.752;2023-02-15T07:40:19;167.88;;;25.23;;
55368;SDS011;41247;49.736;8.752;2023-02-15T07:43:59;197.60;;;26.33;;
55368;SDS011;41247;49.736;8.752;2023-02-15T07:47:40;181.40;;;25.15;;
55368;SDS011;41247;49.736;8.752;2023-02-15T07:51:21;139.18;;;24.77;;
55368;SDS011;41247;49.736;8.752;2023-02-15T07:55:01;166.52;;;25.95;;
55368;SDS011;41247;49.736;8.752;2023-02-15T07:58:42;211.43;;;27.58;;
55368;SDS011;41247;49.736;8.752;2023-02-15T08:02:23;254.05;;;28.45;;
55368;SDS011;41247;49.736;8.752;2023-02-15T08:06:04;131.77;;;26.23;;
55368;SDS011;41247;49.736;8.752;2023-02-15T08:09:45;206.38;;;25.33;;
55368;SDS011;41247;49.736;8.752;2023-02-15T08:13:25;117.80;;;23.17;;
55368;SDS011;41247;49.736;8.752;2023-02-15T08:17:06;79.47;;;23.38;;
55368;SDS011;41247;49.736;8.752;2023-02-15T08:20:49;60.25;;;22.23;;
55368;SDS011;41247;49.736;8.752;2023-02-15T08:24:34;64.28;;;20.73;;
55368;SDS011;41247;49.736;8.752;2023-02-15T08:28:16;59.22;;;20.17;;
55368;SDS011;41247;49.736;8.752;2023-02-15T08:31:58;82.15;;;21.60;;
55368;SDS011;41247;49.736;8.752;2023-02-15T08:35:42;64.03;;;20.25;;
55368;SDS011;41247;49.736;8.752;2023-02-15T08:39:23;57.10;;;19.15;;
55368;SDS011;41247;49.736;8.752;2023-02-15T08:43:03;68.63;;;20.42;;
55368;SDS011;41247;49.736;8.752;2023-02-15T08:46:44;75.20;;;21.30;;
55368;SDS011;41247;49.736;8.752;2023-02-15T08:50:26;55.78;;;20.27;;
55368;SDS011;41247;49.736;8.752;2023-02-15T08:54:08;58.45;;;19.08;;
55368;SDS011;41247;49.736;8.752;2023-02-15T08:57:52;93.57;;;20.75;;
55368;SDS011;41247;49.736;8.752;2023-02-15T09:01:33;73.78;;;21.02;;
55368;SDS011;41247;49.736;8.752;2023-02-15T09:05:14;81.28;;;20.40;;
55368;SDS011;41247;49.736;8.752;2023-02-15T09:08:55;51.47;;;20.83;;
55368;SDS011;41247;49.736;8.752;2023-02-15T09:12:36;153.95;;;22.70;;
55368;SDS011;41247;49.736;8.752;2023-02-15T09:16:18;45.72;;;20.20;;
55368;SDS011;41247;49.736;8.752;2023-02-15T09:20:01;42.63;;;19.23;;
55368;SDS011;41247;49.736;8.752;2023-02-15T09:23:42;46.72;;;19.08;;
55368;SDS011;41247;49.736;8.752;2023-02-15T09:27:25;66.60;;;20.07;;
55368;SDS011;41247;49.736;8.752;2023-02-15T09:31:14;42.33;;;18.75;;
55368;SDS011;41247;49.736;8.752;2023-02-15T09:35:00;62.28;;;18.77;;
55368;SDS011;41247;49.736;8.752;2023-02-15T09:38:40;54.92;;;18.13;;
55368;SDS011;41247;49.736;8.752;2023-02-15T09:42:28;46.85;;;19.33;;
55368;SDS011;41247;49.736;8.752;2023-02-15T09:46:27;50.23;;;19.13;;
55368;SDS011;41247;49.736;8.752;2023-02-15T09:54:20;249.40;;;24.50;;
55368;SDS011;41247;49.736;8.752;2023-02-15T09:58:20;336.13;;;27.05;;
55368;SDS011;41247;49.736;8.752;2023-02-15T10:06:28;77.80;;;18.65;;
55368;SDS011;41247;49.736;8.752;2023-02-15T10:10:38;63.78;;;20.83;;
55368;SDS011;41247;49.736;8.752;2023-02-15T10:19:01;67.78;;;21.05;;
55368;SDS011;41247;49.736;8.752;2023-02-15T10:27:25;113.20;;;21.40;;
55368;SDS011;41247;49.736;8.752;2023-02-15T10:35:22;242.32;;;25.45;;
55368;SDS011;41247;49.736;8.752;2023-02-15T10:39:34;130.40;;;23.58;;
55368;SDS011;41247;49.736;8.752;2023-02-15T10:44:04;166.55;;;24.70;;
55368;SDS011;41247;49.736;8.752;2023-02-15T10:48:09;74.85;;;23.63;;
55368;SDS011;41247;49.736;8.752;2023-02-15T10:52:34;99.05;;;23.45;;
55368;SDS011;41247;49.736;8.752;2023-02-15T10:57:14;64.53;;;23.08;;
55368;SDS011;41247;49.736;8.752;2023-02-15T11:05:30;182.10;;;28.55;;
55368;SDS011;41247;49.736;8.752;2023-02-15T11:09:38;117.75;;;27.10;;
55368;SDS011;41247;49.736;8.752;2023-02-15T11:13:26;164.48;;;26.95;;
55368;SDS011;41247;49.736;8.752;2023-02-15T11:17:13;93.32;;;27.52;;
55368;SDS011;41247;49.736;8.752;2023-02-15T11:21:07;123.22;;;25.58;;
55368;SDS011;41247;49.736;8.752;2023-02-15T11:25:30;132.70;;;26.10;;
55368;SDS011;41247;49.736;8.752;2023-02-15T11:33:02;75.00;;;25.83;;
55368;SDS011;41247;49.736;8.752;2023-02-15T11:36:44;50.53;;;23.70;;
55368;SDS011;41247;49.736;8.752;2023-02-15T11:40:32;83.88;;;26.40;;
55368;SDS011;41247;49.736;8.752;2023-02-15T11:44:37;51.05;;;24.65;;
55368;SDS011;41247;49.736;8.752;2023-02-15T11:48:26;48.30;;;23.55;;
55368;SDS011;41247;49.736;8.752;2023-02-15T11:52:12;48.83;;;24.50;;
55368;SDS011;41247;49.736;8.752;2023-02-15T11:55:54;47.42;;;24.48;;
55368;SDS011;41247;49.736;8.752;2023-02-15T11:59:35;47.03;;;24.67;;
55368;SDS011;41247;49.736;8.752;2023-02-15T12:03:28;53.50;;;24.77;;
55368;SDS011;41247;49.736;8.752;2023-02-15T12:07:33;48.95;;;25.23;;
55368;SDS011;41247;49.736;8.752;2023-02-15T12:11:25;45.00;;;22.98;;
55368;SDS011;41247;49.736;8.752;2023-02-15T12:15:29;44.80;;;22.70;;
55368;SDS011;41247;49.736;8.752;2023-02-15T12:23:17;47.30;;;24.30;;
55368;SDS011;41247;49.736;8.752;2023-02-15T12:27:00;46.80;;;23.95;;
55368;SDS011;41247;49.736;8.752;2023-02-15T12:30:53;48.55;;;24.63;;
55368;SDS011;41247;49.736;8.752;2023-02-15T12:34:36;45.55;;;23.20;;
55368;SDS011;41247;49.736;8.752;2023-02-15T12:41:59;50.53;;;24.80;;
55368;SDS011;41247;49.736;8.752;2023-02-15T12:45:44;39.95;;;22.77;;
55368;SDS011;41247;49.736;8.752;2023-02-15T12:49:25;42.95;;;23.48;;
55368;SDS011;41247;49.736;8.752;2023-02-15T12:53:13;42.00;;;21.70;;
55368;SDS011;41247;49.736;8.752;2023-02-15T12:56:59;45.08;;;24.88;;
55368;SDS011;41247;49.736;8.752;2023-02-15T13:04:57;44.55;;;24.17;;
55368;SDS011;41247;49.736;8.752;2023-02-15T13:08:56;51.50;;;25.73;;
55368;SDS011;41247;49.736;8.752;2023-02-15T13:12:59;49.08;;;26.38;;
55368;SDS011;41247;49.736;8.752;2023-02-15T13:16:40;45.65;;;24.25;;
55368;SDS011;41247;49.736;8.752;2023-02-15T13:20:23;47.80;;;25.38;;
55368;SDS011;41247;49.736;8.752;2023-02-15T13:24:26;48.97;;;26.75;;
55368;SDS011;41247;49.736;8.752;2023-02-15T13:28:10;49.13;;;26.67;;
55368;SDS011;41247;49.736;8.752;2023-02-15T13:31:55;56.50;;;30.45;;
55368;SDS011;41247;49.736;8.752;2023-02-15T13:35:55;58.65;;;30.08;;
55368;SDS011;41247;49.736;8.752;2023-02-15T13:48:15;51.38;;;27.92;;
55368;SDS011;41247;49.736;8.752;2023-02-15T13:52:21;57.67;;;27.95;;
55368;SDS011;41247;49.736;8.752;2023-02-15T13:56:19;47.05;;;24.67;;
55368;SDS011;41247;49.736;8.752;2023-02-15T14:01:16;48.22;;;26.50;;
55368;SDS011;41247;49.736;8.752;2023-02-15T14:21:34;50.42;;;27.80;;
55368;SDS011;41247;49.736;8.752;2023-02-15T14:29:49;51.22;;;27.80;;
55368;SDS011;41247;49.736;8.752;2023-02-15T14:33:39;70.55;;;36.53;;
55368;SDS011;41247;49.736;8.752;2023-02-15T14:37:37;73.68;;;38.53;;
55368;SDS011;41247;49.736;8.752;2023-02-15T14:41:37;71.55;;;38.30;;
55368;SDS011;41247;49.736;8.752;2023-02-15T14:45:29;71.07;;;36.00;;
55368;SDS011;41247;49.736;8.752;2023-02-15T14:49:22;63.53;;;33.20;;
55368;SDS011;41247;49.736;8.752;2023-02-15T14:53:16;65.28;;;29.52;;
55368;SDS011;41247;49.736;8.752;2023-02-15T15:00:52;48.72;;;25.58;;
55368;SDS011;41247;49.736;8.752;2023-02-15T15:08:37;62.70;;;29.55;;
55368;SDS011;41247;49.736;8.752;2023-02-15T15:16:27;304.20;;;29.20;;
55368;SDS011;41247;49.736;8.752;2023-02-15T15:32:15;53.95;;;26.83;;
55368;SDS011;41247;49.736;8.752;2023-02-15T15:40:20;97.50;;;28.77;;
55368;SDS011;41247;49.736;8.752;2023-02-15T15:48:38;98.97;;;30.30;;
55368;SDS011;41247;49.736;8.752;2023-02-15T15:52:20;135.88;;;26.90;;
55368;SDS011;41247;49.736;8.752;2023-02-15T15:56:05;154.60;;;31.95;;
55368;SDS011;41247;49.736;8.752;2023-02-15T15:59:52;246.50;;;35.13;;
55368;SDS011;41247;49.736;8.752;2023-02-15T16:03:34;155.48;;;37.35;;
55368;SDS011;41247;49.736;8.752;2023-02-15T16:10:58;186.60;;;32.42;;
55368;SDS011;41247;49.736;8.752;2023-02-15T16:14:50;67.80;;;27.38;;
55368;SDS011;41247;49.736;8.752;2023-02-15T16:18:30;53.58;;;27.35;;
55368;SDS011;41247;49.736;8.752;2023-02-15T16:22:15;80.63;;;26.45;;
55368;SDS011;41247;49.736;8.752;2023-02-15T16:30:31;51.75;;;26.13;;
55368;SDS011;41247;49.736;8.752;2023-02-15T16:34:17;105.70;;;31.60;;
55368;SDS011;41247;49.736;8.752;2023-02-15T16:41:38;78.93;;;29.45;;
55368;SDS011;41247;49.736;8.752;2023-02-15T16:45:19;88.25;;;28.73;;
55368;SDS011;41247;49.736;8.752;2023-02-15T16:49:05;153.50;;;29.70;;
55368;SDS011;41247;49.736;8.752;2023-02-15T16:52:55;164.73;;;31.42;;
55368;SDS011;41247;49.736;8.752;2023-02-15T16:56:36;230.63;;;32.20;;
55368;SDS011;41247;49.736;8.752;2023-02-15T17:00:24;180.27;;;30.50;;
55368;SDS011;41247;49.736;8.752;2023-02-15T17:08:17;63.33;;;27.75;;
55368;SDS011;41247;49.736;8.752;2023-02-15T17:12:09;60.63;;;30.15;;
55368;SDS011;41247;49.736;8.752;2023-02-15T17:19:49;54.53;;;27.13;;
55368;SDS011;41247;49.736;8.752;2023-02-15T17:23:35;53.28;;;25.38;;
55368;SDS011;41247;49.736;8.752;2023-02-15T17:27:24;69.32;;;26.92;;
55368;SDS011;41247;49.736;8.752;2023-02-15T17:31:07;94.40;;;27.90;;
55368;SDS011;41247;49.736;8.752;2023-02-15T17:39:05;89.25;;;29.33;;
55368;SDS011;41247;49.736;8.752;2023-02-15T17:42:59;185.52;;;30.35;;
55368;SDS011;41247;49.736;8.752;2023-02-15T17:46:40;243.57;;;33.00;;
55368;SDS011;41247;49.736;8.752;2023-02-15T17:50:22;199.45;;;31.85;;
55368;SDS011;41247;49.736;8.752;2023-02-15T17:54:05;68.03;;;27.98;;
55368;SDS011;41247;49.736;8.752;2023-02-15T17:57:48;61.40;;;28.80;;
55368;SDS011;41247;49.736;8.752;2023-02-15T18:01:29;56.13;;;26.27;;
55368;SDS011;41247;49.736;8.752;2023-02-15T18:05:12;51.72;;;25.88;;
55368;SDS011;41247;49.736;8.752;2023-02-15T18:08:54;46.08;;;23.90;;
55368;SDS011;41247;49.736;8.752;2023-02-15T18:12:34;47.78;;;23.13;;
55368;SDS011;41247;49.736;8.752;2023-02-15T18:16:17;45.30;;;22.08;;
55368;SDS011;41247;49.736;8.752;2023-02-15T18:20:06;46.60;;;21.33;;
55368;SDS011;41247;49.736;8.752;2023-02-15T18:24:02;46.45;;;22.33;;
55368;SDS011;41247;49.736;8.752;2023-02-15T18:27:42;53.40;;;22.67;;
55368;SDS011;41247;49.736;8.752;2023-02-15T18:31:23;55.95;;;24.35;;
55368;SDS011;41247;49.736;8.752;2023-02-15T18:35:04;76.63;;;31.88;;
55368;SDS011;41247;49.736;8.752;2023-02-15T18:38:45;75.50;;;30.27;;
55368;SDS011;41247;49.736;8.752;2023-02-15T18:42:30;75.20;;;30.20;;
55368;SDS011;41247;49.736;8.752;2023-02-15T18:46:12;72.43;;;29.10;;
55368;SDS011;41247;49.736;8.752;2023-02-15T18:49:53;74.82;;;28.95;;
55368;SDS011;41247;49.736;8.752;2023-02-15T18:53:34;68.40;;;28.83;;
55368;SDS011;41247;49.736;8.752;2023-02-15T18:57:14;69.05;;;28.50;;
55368;SDS011;41247;49.736;8.752;2023-02-15T19:00:55;72.85;;;28.45;;
55368;SDS011;41247;49.736;8.752;2023-02-15T19:04:36;67.00;;;26.27;;
55368;SDS011;41247;49.736;8.752;2023-02-15T19:08:17;62.08;;;24.70;;
55368;SDS011;41247;49.736;8.752;2023-02-15T19:12:01;64.22;;;26.48;;
55368;SDS011;41247;49.736;8.752;2023-02-15T19:15:41;60.85;;;25.38;;
55368;SDS011;41247;49.736;8.752;2023-02-15T19:19:23;67.32;;;26.73;;
55368;SDS011;41247;49.736;8.752;2023-02-15T19:23:05;62.90;;;26.60;;
55368;SDS011;41247;49.736;8.752;2023-02-15T19:26:52;73.22;;;28.08;;
55368;SDS011;41247;49.736;8.752;2023-02-15T19:30:32;74.00;;;28.73;;
55368;SDS011;41247;49.736;8.752;2023-02-15T19:34:14;75.53;;;30.75;;
55368;SDS011;41247;49.736;8.752;2023-02-15T19:37:58;75.25;;;29.58;;
55368;SDS011;41247;49.736;8.752;2023-02-15T19:41:42;83.47;;;31.90;;
55368;SDS011;41247;49.736;8.752;2023-02-15T19:45:24;80.82;;;30.90;;
55368;SDS011;41247;49.736;8.752;2023-02-15T19:49:09;88.68;;;34.10;;
55368;SDS011;41247;49.736;8.752;2023-02-15T19:52:49;83.65;;;33.67;;
55368;SDS011;41247;49.736;8.752;2023-02-15T19:56:30;80.28;;;32.88;;
55368;SDS011;41247;49.736;8.752;2023-02-15T20:00:15;83.47;;;32.80;;
55368;SDS011;41247;49.736;8.752;2023-02-15T20:04:04;81.70;;;33.53;;
55368;SDS011;41247;49.736;8.752;2023-02-15T20:07:45;86.43;;;33.58;;
55368;SDS011;41247;49.736;8.752;2023-02-15T20:11:29;81.32;;;33.70;;
55368;SDS011;41247;49.736;8.752;2023-02-15T20:15:26;76.65;;;32.78;;
55368;SDS011;41247;49.736;8.752;2023-02-15T20:19:12;88.55;;;35.88;;
55368;SDS011;41247;49.736;8.752;2023-02-15T20:22:53;96.13;;;37.63;;
55368;SDS011;41247;49.736;8.752;2023-02-15T20:26:34;113.55;;;42.17;;
55368;SDS011;41247;49.736;8.752;2023-02-15T20:30:19;105.55;;;41.40;;
55368;SDS011;41247;49.736;8.752;2023-02-15T20:34:03;112.68;;;43.03;;
55368;SDS011;41247;49.736;8.752;2023-02-15T20:37:45;106.45;;;42.08;;
55368;SDS011;41247;49.736;8.752;2023-02-15T20:41:29;113.95;;;43.20;;
55368;SDS011;41247;49.736;8.752;2023-02-15T20:45:14;108.35;;;41.80;;
55368;SDS011;41247;49.736;8.752;2023-02-15T20:49:05;112.32;;;44.20;;
55368;SDS011;41247;49.736;8.752;2023-02-15T20:52:46;115.07;;;43.60;;
55368;SDS011;41247;49.736;8.752;2023-02-15T20:56:28;103.72;;;40.95;;
55368;SDS011;41247;49.736;8.752;2023-02-15T21:00:19;109.47;;;41.72;;
55368;SDS011;41247;49.736;8.752;2023-02-15T21:04:03;101.93;;;40.55;;
55368;SDS011;41247;49.736;8.752;2023-02-15T21:07:43;104.47;;;40.33;;
55368;SDS011;41247;49.736;8.752;2023-02-15T21:11:24;97.18;;;40.47;;
55368;SDS011;41247;49.736;8.752;2023-02-15T21:15:22;98.68;;;40.15;;
55368;SDS011;41247;49.736;8.752;2023-02-15T21:19:11;104.05;;;42.15;;
55368;SDS011;41247;49.736;8.752;2023-02-15T21:22:53;110.22;;;43.20;;
55368;SDS011;41247;49.736;8.752;2023-02-15T21:26:36;113.88;;;43.80;;
55368;SDS011;41247;49.736;8.752;2023-02-15T21:30:24;93.43;;;38.13;;
55368;SDS011;41247;49.736;8.752;2023-02-15T21:34:05;91.10;;;36.30;;
55368;SDS011;41247;49.736;8.752;2023-02-15T21:37:47;87.97;;;36.53;;
55368;SDS011;41247;49.736;8.752;2023-02-15T21:41:30;96.13;;;38.08;;
55368;SDS011;41247;49.736;8.752;2023-02-15T21:45:20;89.68;;;36.47;;
55368;SDS011;41247;49.736;8.752;2023-02-15T21:49:01;106.35;;;40.97;;
55368;SDS011;41247;49.736;8.752;2023-02-15T21:52:42;95.05;;;39.33;;
55368;SDS011;41247;49.736;8.752;2023-02-15T21:56:23;98.55;;;39.35;;
55368;SDS011;41247;49.736;8.752;2023-02-15T22:00:04;104.15;;;41.03;;
55368;SDS011;41247;49.736;8.752;2023-02-15T22:03:45;94.13;;;40.90;;
55368;SDS011;41247;49.736;8.752;2023-02-15T22:07:26;95.88;;;39.40;;
55368;SDS011;41247;49.736;8.752;2023-02-15T22:11:14;88.03;;;37.35;;
55368;SDS011;41247;49.736;8.752;2023-02-15T22:15:00;69.47;;;28.45;;
55368;SDS011;41247;49.736;8.752;2023-02-15T22:18:41;99.57;;;39.00;;
55368;SDS011;41247;49.736;8.752;2023-02-15T22:22:22;88.45;;;36.60;;
55368;SDS011;41247;49.736;8.752;2023-02-15T22:26:07;86.95;;;36.03;;
55368;SDS011;41247;49.736;8.752;2023-02-15T22:29:56;90.65;;;34.20;;
55368;SDS011;41247;49.736;8.752;2023-02-15T22:33:37;76.82;;;32.10;;
55368;SDS011;41247;49.736;8.752;2023-02-15T22:37:18;81.50;;;32.33;;
55368;SDS011;41247;49.736;8.752;2023-02-15T22:41:00;78.90;;;32.75;;
55368;SDS011;41247;49.736;8.752;2023-02-15T22:44:42;83.47;;;32.72;;
55368;SDS011;41247;49.736;8.752;2023-02-15T22:48:23;66.63;;;29.38;;
55368;SDS011;41247;49.736;8.752;2023-02-15T22:52:04;95.80;;;38.50;;
55368;SDS011;41247;49.736;8.752;2023-02-15T22:55:48;101.78;;;41.70;;
55368;SDS011;41247;49.736;8.752;2023-02-15T22:59:29;91.70;;;36.13;;
55368;SDS011;41247;49.736;8.752;2023-02-15T23:03:19;86.63;;;36.58;;
55368;SDS011;41247;49.736;8.752;2023-02-15T23:07:04;85.03;;;32.95;;
55368;SDS011;41247;49.736;8.752;2023-02-15T23:10:56;81.75;;;33.47;;
55368;SDS011;41247;49.736;8.752;2023-02-15T23:14:37;79.40;;;32.92;;
55368;SDS011;41247;49.736;8.752;2023-02-15T23:18:25;76.05;;;31.15;;
55368;SDS011;41247;49.736;8.752;2023-02-15T23:22:20;80.10;;;34.30;;
55368;SDS011;41247;49.736;8.752;2023-02-15T23:26:01;78.13;;;33.13;;
55368;SDS011;41247;49.736;8.752;2023-02-15T23:29:43;83.50;;;33.38;;
55368;SDS011;41247;49.736;8.752;2023-02-15T23:33:27;85.13;;;33.67;;
55368;SDS011;41247;49.736;8.752;2023-02-15T23:37:12;81.18;;;31.92;;
55368;SDS011;41247;49.736;8.752;2023-02-15T23:40:57;90.63;;;36.40;;
55368;SDS011;41247;49.736;8.752;2023-02-15T23:44:43;90.47;;;36.55;;
55368;SDS011;41247;49.736;8.752;2023-02-15T23:48:33;94.95;;;37.05;;
55368;SDS011;41247;49.736;8.752;2023-02-15T23:52:17;94.32;;;36.78;;
55368;SDS011;41247;49.736;8.752;2023-02-15T23:55:57;90.72;;;35.90;;
55368;SDS011;41247;49.736;8.752;2023-02-15T23:59:39;91.78;;;35.78;;
